Kenora, Ontario

6:08 PM CDT on October 25, 2014 (GMT -0500)
Grassy Lake | Change Station
CLOSE
Current Station
Personal Weather Station
Location: Kenora, ONTARIO
Elevation: 980 ft
Nearby Weather Stations

Elev 980 ft 49.90 °N, 94.38 °W | Updated 2 seconds ago

Clear
Clear
49.5 °F
Feels Like 48 °F
N
4.0
Wind Variable Wind from WNW
Gusts 4.5 mph

Tomorrow is forecast to be nearly the same temperature as today.

Today
High -- | Low -- °F
--% Chance of Precip.
Yesterday
High -- | Low -- °F
Precip. -- in
7:55 AM 6:06 PM
Waxing Crescent, 5% visible
Pressure 29.94 in
Visibility 10.0 miles
Clouds Clear
Windchill 48 °F
Dew Point 28 °F
Humidity 44%
Rainfall 0.00 in
Snow Depth Not available.
UV 0 out of 12
Pollen Not available.
Air Quality Not available.
Flu Activity Not available.
METAR KFGN 252254Z AUTO 30019G27KT 10SM CLR 11/M01 A2994 RMK AO2

More Conditions Fewer Conditions

Pressure 29.94 in
Visibility 10.0 miles
Clouds Clear
Windchill 48 °F
Dew Point 28 °F
Humidity 44%
Rainfall 0.00 in
Snow Depth Not available.
UV 0 out of 12
Pollen Not available.
Air Quality Not available.
Flu Activity Not available.
METAR KFGN 252254Z AUTO 30019G27KT 10SM CLR 11/M01 A2994 RMK AO2

More Conditions Fewer Conditions

10-Day Weather Forecast

Almanac

Astronomy

Oct. 25, 2014 Rise Set
Actual Time 7:55 AM CDT 6:06 PM CDT
Civil Twilight 7:22 AM CDT 6:40 PM CDT
Nautical Twilight 6:44 AM CDT 7:17 PM CDT
Astronomical Twilight 6:07 AM CDT 7:54 PM CDT
Moon 9:42 AM CDT 7:22 PM CDT
Length of Visible Light 11h 18m
Length of Day
10h 11m
Tomorrow will be 3m 28s shorter.
Waxing Crescent, 5% of the Moon is Illuminated
Today
Waxing Crescent
Oct 30
First Quarter
Nov 6
Full
Nov 14
Last Quarter
Nov 22
New

Today's Extremes

Country Highs Country Lows

Community

WunderPhotos

Upload Photos

1,765,021 photos uploaded!

Nearby

Snow Depth

Not available.

Earthquake Activity

City Distance Mag. Time & Date
No recent earthquake activity has been reported nearby.
Minimum magnitude displayed is 2.5.

Coastal Water Temperatures

Place Temperature
No Stations Reporting

Nearby Weather Stations